sensor_id;sensor_type;location;lat;lon;timestamp;pressure;altitude;pressure_sealevel;temperature;humidity
68380;BME280;57711;53.196;19.638;2023-02-22T00:01:35;100083.41;;;4.47;69.42
68380;BME280;57711;53.196;19.638;2023-02-22T00:04:05;100090.09;;;4.49;69.48
68380;BME280;57711;53.196;19.638;2023-02-22T00:06:32;100090.63;;;4.49;69.53
68380;BME280;57711;53.196;19.638;2023-02-22T00:09:00;100093.98;;;4.50;69.45
68380;BME280;57711;53.196;19.638;2023-02-22T00:11:28;100100.59;;;4.50;69.45
68380;BME280;57711;53.196;19.638;2023-02-22T00:13:57;100102.79;;;4.49;69.50
68380;BME280;57711;53.196;19.638;2023-02-22T00:16:25;100108.08;;;4.48;69.35
68380;BME280;57711;53.196;19.638;2023-02-22T00:18:53;100111.10;;;4.45;69.42
68380;BME280;57711;53.196;19.638;2023-02-22T00:21:21;100112.90;;;4.43;69.42
68380;BME280;57711;53.196;19.638;2023-02-22T00:23:48;100114.67;;;4.43;69.37
68380;BME280;57711;53.196;19.638;2023-02-22T00:26:18;100118.80;;;4.46;69.34
68380;BME280;57711;53.196;19.638;2023-02-22T00:28:51;100118.80;;;4.48;69.40
68380;BME280;57711;53.196;19.638;2023-02-22T00:31:19;100120.23;;;4.51;69.32
68380;BME280;57711;53.196;19.638;2023-02-22T00:33:48;100118.61;;;4.51;69.28
68380;BME280;57711;53.196;19.638;2023-02-22T00:36:16;100120.39;;;4.51;69.37
68380;BME280;57711;53.196;19.638;2023-02-22T00:38:43;100121.64;;;4.51;69.47
68380;BME280;57711;53.196;19.638;2023-02-22T00:41:11;100125.36;;;4.51;69.37
68380;BME280;57711;53.196;19.638;2023-02-22T00:43:38;100126.27;;;4.51;69.39
68380;BME280;57711;53.196;19.638;2023-02-22T00:46:05;100130.27;;;4.51;69.44
68380;BME280;57711;53.196;19.638;2023-02-22T00:48:32;100134.27;;;4.50;69.50
68380;BME280;57711;53.196;19.638;2023-02-22T00:51:00;100139.33;;;4.46;69.34
68380;BME280;57711;53.196;19.638;2023-02-22T00:53:28;100142.38;;;4.44;69.40
68380;BME280;57711;53.196;19.638;2023-02-22T00:55:56;100146.54;;;4.43;69.37
68380;BME280;57711;53.196;19.638;2023-02-22T00:58:23;100149.16;;;4.44;69.17
68380;BME280;57711;53.196;19.638;2023-02-22T01:00:50;100148.84;;;4.43;69.28
68380;BME280;57711;53.196;19.638;2023-02-22T01:03:19;100155.39;;;4.44;69.24
68380;BME280;57711;53.196;19.638;2023-02-22T01:05:46;100160.65;;;4.46;69.28
68380;BME280;57711;53.196;19.638;2023-02-22T01:08:15;100161.85;;;4.44;69.08
68380;BME280;57711;53.196;19.638;2023-02-22T01:10:42;100163.52;;;4.43;69.30
68380;BME280;57711;53.196;19.638;2023-02-22T01:13:10;100162.92;;;4.41;69.26
68380;BME280;57711;53.196;19.638;2023-02-22T01:15:41;100166.18;;;4.38;69.28
68380;BME280;57711;53.196;19.638;2023-02-22T01:18:11;100168.64;;;4.36;69.29
68380;BME280;57711;53.196;19.638;2023-02-22T01:20:39;100171.84;;;4.34;69.38
68380;BME280;57711;53.196;19.638;2023-02-22T01:23:07;100170.77;;;4.31;69.32
68380;BME280;57711;53.196;19.638;2023-02-22T01:25:36;100174.69;;;4.28;69.21
68380;BME280;57711;53.196;19.638;2023-02-22T01:28:05;100174.05;;;4.27;69.25
68380;BME280;57711;53.196;19.638;2023-02-22T01:30:34;100172.39;;;4.25;69.37
68380;BME280;57711;53.196;19.638;2023-02-22T01:33:04;100177.39;;;4.26;69.31
68380;BME280;57711;53.196;19.638;2023-02-22T01:35:35;100182.13;;;4.27;69.23
68380;BME280;57711;53.196;19.638;2023-02-22T01:38:03;100183.06;;;4.26;69.08
68380;BME280;57711;53.196;19.638;2023-02-22T01:40:36;100189.15;;;4.26;69.23
68380;BME280;57711;53.196;19.638;2023-02-22T01:48:24;100186.92;;;4.22;69.20
68380;BME280;57711;53.196;19.638;2023-02-22T01:50:58;100191.36;;;4.20;69.29
68380;BME280;57711;53.196;19.638;2023-02-22T01:53:33;100192.23;;;4.17;69.29
68380;BME280;57711;53.196;19.638;2023-02-22T01:56:02;100195.80;;;4.14;69.22
68380;BME280;57711;53.196;19.638;2023-02-22T01:58:31;100201.02;;;4.08;69.20
68380;BME280;57711;53.196;19.638;2023-02-22T02:00:59;100200.74;;;4.04;69.20
68380;BME280;57711;53.196;19.638;2023-02-22T02:03:29;100200.68;;;4.02;69.30
68380;BME280;57711;53.196;19.638;2023-02-22T02:06:01;100200.54;;;4.02;69.35
68380;BME280;57711;53.196;19.638;2023-02-22T02:08:48;100199.24;;;4.02;69.21
68380;BME280;57711;53.196;19.638;2023-02-22T02:11:22;100200.77;;;4.04;69.15
68380;BME280;57711;53.196;19.638;2023-02-22T02:13:53;100202.06;;;4.06;69.20
68380;BME280;57711;53.196;19.638;2023-02-22T02:16:26;100196.48;;;4.07;69.12
68380;BME280;57711;53.196;19.638;2023-02-22T02:18:57;100200.36;;;4.08;69.27
68380;BME280;57711;53.196;19.638;2023-02-22T02:21:53;100201.19;;;4.08;69.28
68380;BME280;57711;53.196;19.638;2023-02-22T02:27:21;100203.05;;;4.07;69.30
68380;BME280;57711;53.196;19.638;2023-02-22T02:33:00;100206.30;;;4.04;69.32
68380;BME280;57711;53.196;19.638;2023-02-22T02:36:06;100205.27;;;4.03;69.36
68380;BME280;57711;53.196;19.638;2023-02-22T02:38:49;100201.25;;;4.02;69.41
68380;BME280;57711;53.196;19.638;2023-02-22T02:41:34;100205.91;;;4.02;69.52
68380;BME280;57711;53.196;19.638;2023-02-22T02:46:45;100205.52;;;4.05;69.32
68380;BME280;57711;53.196;19.638;2023-02-22T02:49:18;100209.54;;;4.06;69.21
68380;BME280;57711;53.196;19.638;2023-02-22T02:51:51;100211.02;;;4.09;69.35
68380;BME280;57711;53.196;19.638;2023-02-22T02:54:20;100211.99;;;4.10;69.16
68380;BME280;57711;53.196;19.638;2023-02-22T02:56:51;100214.39;;;4.12;69.23
68380;BME280;57711;53.196;19.638;2023-02-22T03:04:52;100223.73;;;4.11;69.34
68380;BME280;57711;53.196;19.638;2023-02-22T03:16:20;100231.26;;;4.00;69.24
68380;BME280;57711;53.196;19.638;2023-02-22T03:18:53;100233.04;;;3.97;69.41
68380;BME280;57711;53.196;19.638;2023-02-22T03:21:32;100232.63;;;3.98;69.41
68380;BME280;57711;53.196;19.638;2023-02-22T03:24:09;100241.16;;;4.01;69.32
68380;BME280;57711;53.196;19.638;2023-02-22T03:26:48;100240.58;;;4.03;69.25
68380;BME280;57711;53.196;19.638;2023-02-22T03:29:21;100247.09;;;4.04;69.24
68380;BME280;57711;53.196;19.638;2023-02-22T03:31:57;100249.83;;;4.06;69.38
68380;BME280;57711;53.196;19.638;2023-02-22T03:34:34;100248.11;;;4.08;69.39
68380;BME280;57711;53.196;19.638;2023-02-22T03:37:17;100254.33;;;4.08;69.47
68380;BME280;57711;53.196;19.638;2023-02-22T03:39:51;100257.58;;;4.08;69.38
68380;BME280;57711;53.196;19.638;2023-02-22T03:42:27;100257.23;;;4.08;69.26
68380;BME280;57711;53.196;19.638;2023-02-22T03:44:56;100265.42;;;4.06;69.27
68380;BME280;57711;53.196;19.638;2023-02-22T03:47:36;100267.70;;;4.03;69.24
68380;BME280;57711;53.196;19.638;2023-02-22T03:50:11;100269.13;;;4.00;69.34
68380;BME280;57711;53.196;19.638;2023-02-22T03:52:43;100270.71;;;3.98;69.31
68380;BME280;57711;53.196;19.638;2023-02-22T03:55:14;100270.34;;;3.98;69.25
68380;BME280;57711;53.196;19.638;2023-02-22T03:57:56;100273.96;;;4.01;69.24
68380;BME280;57711;53.196;19.638;2023-02-22T04:00:28;100275.60;;;4.00;69.11
68380;BME280;57711;53.196;19.638;2023-02-22T04:02:56;100277.66;;;4.02;69.16
68380;BME280;57711;53.196;19.638;2023-02-22T04:05:24;100279.11;;;4.01;69.14
68380;BME280;57711;53.196;19.638;2023-02-22T04:07:53;100280.83;;;4.02;69.12
68380;BME280;57711;53.196;19.638;2023-02-22T04:10:21;100285.85;;;4.03;69.19
68380;BME280;57711;53.196;19.638;2023-02-22T04:12:49;100289.09;;;4.02;69.22
68380;BME280;57711;53.196;19.638;2023-02-22T04:15:23;100290.20;;;4.01;69.24
68380;BME280;57711;53.196;19.638;2023-02-22T04:17:55;100292.58;;;4.00;69.25
68380;BME280;57711;53.196;19.638;2023-02-22T04:20:22;100292.52;;;3.98;69.11
68380;BME280;57711;53.196;19.638;2023-02-22T04:22:57;100291.77;;;3.96;69.10
68380;BME280;57711;53.196;19.638;2023-02-22T04:25:25;100295.14;;;3.90;69.05
68380;BME280;57711;53.196;19.638;2023-02-22T04:27:52;100295.57;;;3.87;69.01
68380;BME280;57711;53.196;19.638;2023-02-22T04:30:30;100295.43;;;3.83;69.09
68380;BME280;57711;53.196;19.638;2023-02-22T04:32:58;100294.52;;;3.80;68.92
68380;BME280;57711;53.196;19.638;2023-02-22T04:35:26;100296.85;;;3.80;68.95
68380;BME280;57711;53.196;19.638;2023-02-22T04:37:53;100299.70;;;3.81;69.02
68380;BME280;57711;53.196;19.638;2023-02-22T04:40:20;100299.33;;;3.84;69.04
68380;BME280;57711;53.196;19.638;2023-02-22T04:42:48;100299.39;;;3.85;68.90
68380;BME280;57711;53.196;19.638;2023-02-22T04:45:15;100298.02;;;3.85;68.93
68380;BME280;57711;53.196;19.638;2023-02-22T04:47:42;100300.44;;;3.83;68.79
68380;BME280;57711;53.196;19.638;2023-02-22T04:50:11;100301.14;;;3.80;68.82
68380;BME280;57711;53.196;19.638;2023-02-22T04:52:38;100297.95;;;3.76;68.89
68380;BME280;57711;53.196;19.638;2023-02-22T04:55:06;100301.98;;;3.75;68.85
68380;BME280;57711;53.196;19.638;2023-02-22T04:57:35;100303.08;;;3.74;68.96
68380;BME280;57711;53.196;19.638;2023-02-22T05:00:03;100301.50;;;3.71;68.82
68380;BME280;57711;53.196;19.638;2023-02-22T05:02:32;100304.80;;;3.67;68.80
68380;BME280;57711;53.196;19.638;2023-02-22T05:04:59;100307.08;;;3.62;68.80
68380;BME280;57711;53.196;19.638;2023-02-22T05:07:26;100310.00;;;3.57;68.78
68380;BME280;57711;53.196;19.638;2023-02-22T05:09:53;100312.84;;;3.55;68.75
68380;BME280;57711;53.196;19.638;2023-02-22T05:12:21;100311.82;;;3.57;68.73
68380;BME280;57711;53.196;19.638;2023-02-22T05:14:48;100312.33;;;3.57;68.54
68380;BME280;57711;53.196;19.638;2023-02-22T05:17:15;100313.33;;;3.59;68.64
68380;BME280;57711;53.196;19.638;2023-02-22T05:19:42;100319.86;;;3.57;68.63
68380;BME280;57711;53.196;19.638;2023-02-22T05:22:09;100324.02;;;3.56;68.60
68380;BME280;57711;53.196;19.638;2023-02-22T05:24:36;100323.33;;;3.56;68.77
68380;BME280;57711;53.196;19.638;2023-02-22T05:27:04;100328.08;;;3.54;68.76
68380;BME280;57711;53.196;19.638;2023-02-22T05:29:31;100328.35;;;3.50;68.63
68380;BME280;57711;53.196;19.638;2023-02-22T05:31:58;100334.61;;;3.44;68.41
68380;BME280;57711;53.196;19.638;2023-02-22T05:34:26;100334.92;;;3.38;68.49
68380;BME280;57711;53.196;19.638;2023-02-22T05:36:53;100336.55;;;3.35;68.61
68380;BME280;57711;53.196;19.638;2023-02-22T05:39:20;100341.15;;;3.32;68.62
68380;BME280;57711;53.196;19.638;2023-02-22T05:41:47;100344.68;;;3.30;68.60
68380;BME280;57711;53.196;19.638;2023-02-22T05:44:15;100347.42;;;3.26;68.51
68380;BME280;57711;53.196;19.638;2023-02-22T05:46:42;100343.94;;;3.24;68.56
68380;BME280;57711;53.196;19.638;2023-02-22T05:49:09;100350.23;;;3.24;68.52
68380;BME280;57711;53.196;19.638;2023-02-22T05:51:36;100353.13;;;3.23;68.40
68380;BME280;57711;53.196;19.638;2023-02-22T05:54:03;100358.78;;;3.24;68.37
68380;BME280;57711;53.196;19.638;2023-02-22T05:56:31;100362.19;;;3.24;68.51
68380;BME280;57711;53.196;19.638;2023-02-22T05:58:58;100361.12;;;3.24;68.53
68380;BME280;57711;53.196;19.638;2023-02-22T06:01:25;100361.45;;;3.24;68.45
68380;BME280;57711;53.196;19.638;2023-02-22T06:03:52;100366.95;;;3.22;68.45
68380;BME280;57711;53.196;19.638;2023-02-22T06:06:20;100364.99;;;3.18;68.42
68380;BME280;57711;53.196;19.638;2023-02-22T06:08:48;100375.18;;;3.15;68.41
68380;BME280;57711;53.196;19.638;2023-02-22T06:11:15;100378.61;;;3.15;68.40
68380;BME280;57711;53.196;19.638;2023-02-22T06:13:50;100383.42;;;3.15;68.51
68380;BME280;57711;53.196;19.638;2023-02-22T06:16:20;100381.63;;;3.15;68.59
68380;BME280;57711;53.196;19.638;2023-02-22T06:18:48;100381.08;;;3.15;68.65
68380;BME280;57711;53.196;19.638;2023-02-22T06:21:15;100384.76;;;3.16;68.58
68380;BME280;57711;53.196;19.638;2023-02-22T06:23:43;100385.63;;;3.17;68.52
68380;BME280;57711;53.196;19.638;2023-02-22T06:26:11;100390.13;;;3.19;68.55
68380;BME280;57711;53.196;19.638;2023-02-22T06:28:38;100390.88;;;3.22;68.45
68380;BME280;57711;53.196;19.638;2023-02-22T06:31:05;100396.00;;;3.26;68.56
68380;BME280;57711;53.196;19.638;2023-02-22T06:33:32;100397.30;;;3.29;68.47
68380;BME280;57711;53.196;19.638;2023-02-22T06:35:59;100398.94;;;3.31;68.54
68380;BME280;57711;53.196;19.638;2023-02-22T06:38:26;100401.77;;;3.31;68.51
68380;BME280;57711;53.196;19.638;2023-02-22T06:40:54;100405.05;;;3.31;68.55
68380;BME280;57711;53.196;19.638;2023-02-22T06:43:22;100409.63;;;3.32;68.60
68380;BME280;57711;53.196;19.638;2023-02-22T06:45:50;100415.80;;;3.30;68.56
68380;BME280;57711;53.196;19.638;2023-02-22T06:48:18;100420.72;;;3.28;68.59
68380;BME280;57711;53.196;19.638;2023-02-22T06:50:46;100423.66;;;3.27;68.53
68380;BME280;57711;53.196;19.638;2023-02-22T06:53:13;100423.82;;;3.27;68.60
68380;BME280;57711;53.196;19.638;2023-02-22T06:55:40;100429.48;;;3.25;68.71
68380;BME280;57711;53.196;19.638;2023-02-22T06:58:07;100430.34;;;3.29;68.69
68380;BME280;57711;53.196;19.638;2023-02-22T07:00:34;100430.27;;;3.30;68.63
68380;BME280;57711;53.196;19.638;2023-02-22T07:03:02;100436.76;;;3.32;68.61
68380;BME280;57711;53.196;19.638;2023-02-22T07:05:30;100439.56;;;3.36;68.50
68380;BME280;57711;53.196;19.638;2023-02-22T07:08:03;100441.38;;;3.39;68.57
68380;BME280;57711;53.196;19.638;2023-02-22T07:10:31;100442.95;;;3.40;68.43
68380;BME280;57711;53.196;19.638;2023-02-22T07:13:00;100448.25;;;3.41;68.49
68380;BME280;57711;53.196;19.638;2023-02-22T07:15:31;100454.31;;;3.41;68.57
68380;BME280;57711;53.196;19.638;2023-02-22T07:17:59;100458.77;;;3.41;68.57
68380;BME280;57711;53.196;19.638;2023-02-22T07:20:28;100462.20;;;3.40;68.56
68380;BME280;57711;53.196;19.638;2023-02-22T07:22:56;100463.80;;;3.41;68.51
68380;BME280;57711;53.196;19.638;2023-02-22T07:25:23;100468.20;;;3.39;68.46
68380;BME280;57711;53.196;19.638;2023-02-22T07:27:51;100475.23;;;3.38;68.63
68380;BME280;57711;53.196;19.638;2023-02-22T07:30:23;100478.61;;;3.38;68.55
68380;BME280;57711;53.196;19.638;2023-02-22T07:32:53;100480.89;;;3.36;68.51
68380;BME280;57711;53.196;19.638;2023-02-22T07:35:25;100478.97;;;3.32;68.31
68380;BME280;57711;53.196;19.638;2023-02-22T07:37:53;100482.53;;;3.29;68.39
68380;BME280;57711;53.196;19.638;2023-02-22T07:40:23;100484.75;;;3.27;68.40
68380;BME280;57711;53.196;19.638;2023-02-22T07:42:56;100493.89;;;3.27;68.25
68380;BME280;57711;53.196;19.638;2023-02-22T07:45:28;100493.81;;;3.28;68.07
68380;BME280;57711;53.196;19.638;2023-02-22T07:47:56;100495.33;;;3.30;67.97
68380;BME280;57711;53.196;19.638;2023-02-22T07:50:25;100495.76;;;3.32;67.94
68380;BME280;57711;53.196;19.638;2023-02-22T07:52:54;100496.04;;;3.33;68.07
68380;BME280;57711;53.196;19.638;2023-02-22T07:55:26;100489.77;;;3.34;67.91
68380;BME280;57711;53.196;19.638;2023-02-22T07:57:56;100494.20;;;3.34;67.88
68380;BME280;57711;53.196;19.638;2023-02-22T08:00:27;100499.20;;;3.34;67.82
68380;BME280;57711;53.196;19.638;2023-02-22T08:02:55;100504.39;;;3.34;67.94
68380;BME280;57711;53.196;19.638;2023-02-22T08:05:26;100503.41;;;3.32;67.86
68380;BME280;57711;53.196;19.638;2023-02-22T08:07:54;100506.55;;;3.30;67.87
68380;BME280;57711;53.196;19.638;2023-02-22T08:10:23;100507.42;;;3.28;67.71
68380;BME280;57711;53.196;19.638;2023-02-22T08:12:52;100504.43;;;3.24;67.70
68380;BME280;57711;53.196;19.638;2023-02-22T08:15:31;100501.71;;;3.18;67.63
68380;BME280;57711;53.196;19.638;2023-02-22T08:18:06;100501.84;;;3.12;67.70
68380;BME280;57711;53.196;19.638;2023-02-22T08:20:36;100498.80;;;3.09;67.72
68380;BME280;57711;53.196;19.638;2023-02-22T08:23:05;100508.08;;;3.09;67.68
68380;BME280;57711;53.196;19.638;2023-02-22T08:25:32;100511.06;;;3.10;67.65
68380;BME280;57711;53.196;19.638;2023-02-22T08:28:02;100509.18;;;3.12;67.85
68380;BME280;57711;53.196;19.638;2023-02-22T08:30:31;100509.94;;;3.15;67.72
68380;BME280;57711;53.196;19.638;2023-02-22T08:33:01;100512.02;;;3.15;67.63
68380;BME280;57711;53.196;19.638;2023-02-22T08:35:30;100511.29;;;3.16;67.49
68380;BME280;57711;53.196;19.638;2023-02-22T08:38:01;100511.36;;;3.21;67.50
68380;BME280;57711;53.196;19.638;2023-02-22T08:40:31;100513.95;;;3.26;67.53
68380;BME280;57711;53.196;19.638;2023-02-22T08:42:58;100509.79;;;3.34;67.65
68380;BME280;57711;53.196;19.638;2023-02-22T08:45:27;100504.22;;;3.41;67.58
68380;BME280;57711;53.196;19.638;2023-02-22T08:47:55;100505.00;;;3.46;67.48
68380;BME280;57711;53.196;19.638;2023-02-22T08:50:25;100507.20;;;3.48;67.45
68380;BME280;57711;53.196;19.638;2023-02-22T08:52:54;100510.36;;;3.49;67.47
68380;BME280;57711;53.196;19.638;2023-02-22T08:55:23;100510.04;;;3.52;67.53
68380;BME280;57711;53.196;19.638;2023-02-22T08:57:51;100513.88;;;3.53;67.39
68380;BME280;57711;53.196;19.638;2023-02-22T09:00:22;100507.81;;;3.56;67.54
68380;BME280;57711;53.196;19.638;2023-02-22T09:02:52;100508.73;;;3.59;67.35
68380;BME280;57711;53.196;19.638;2023-02-22T09:05:20;100514.88;;;3.58;67.30
68380;BME280;57711;53.196;19.638;2023-02-22T09:07:47;100520.20;;;3.58;67.46
68380;BME280;57711;53.196;19.638;2023-02-22T09:10:22;100529.41;;;3.60;67.45
68380;BME280;57711;53.196;19.638;2023-02-22T09:12:51;100529.95;;;3.60;67.39
68380;BME280;57711;53.196;19.638;2023-02-22T09:15:18;100535.71;;;3.59;67.37
68380;BME280;57711;53.196;19.638;2023-02-22T09:17:45;100534.83;;;3.59;67.46
68380;BME280;57711;53.196;19.638;2023-02-22T09:20:13;100537.33;;;3.59;67.34
68380;BME280;57711;53.196;19.638;2023-02-22T09:22:44;100537.65;;;3.56;67.28
68380;BME280;57711;53.196;19.638;2023-02-22T09:25:12;100536.45;;;3.55;67.23
68380;BME280;57711;53.196;19.638;2023-02-22T09:27:45;100537.17;;;3.55;67.41
68380;BME280;57711;53.196;19.638;2023-02-22T09:30:20;100538.55;;;3.57;67.37
68380;BME280;57711;53.196;19.638;2023-02-22T09:32:51;100546.76;;;3.53;67.20
68380;BME280;57711;53.196;19.638;2023-02-22T09:35:20;100548.44;;;3.52;67.08
68380;BME280;57711;53.196;19.638;2023-02-22T09:37:57;100548.36;;;3.51;67.08
68380;BME280;57711;53.196;19.638;2023-02-22T09:40:27;100546.73;;;3.51;67.18
68380;BME280;57711;53.196;19.638;2023-02-22T09:45:37;100545.48;;;3.54;67.18
68380;BME280;57711;53.196;19.638;2023-02-22T09:48:13;100545.27;;;3.54;66.99
68380;BME280;57711;53.196;19.638;2023-02-22T09:50:50;100545.16;;;3.53;67.09
68380;BME280;57711;53.196;19.638;2023-02-22T09:53:30;100544.94;;;3.54;67.11
68380;BME280;57711;53.196;19.638;2023-02-22T09:56:03;100548.34;;;3.54;67.09
68380;BME280;57711;53.196;19.638;2023-02-22T09:58:37;100545.79;;;3.55;66.95
68380;BME280;57711;53.196;19.638;2023-02-22T10:01:27;100545.93;;;3.52;66.87
68380;BME280;57711;53.196;19.638;2023-02-22T10:04:26;100543.16;;;3.51;66.92
68380;BME280;57711;53.196;19.638;2023-02-22T10:07:04;100542.39;;;3.55;67.02
68380;BME280;57711;53.196;19.638;2023-02-22T10:09:38;100537.92;;;3.58;66.95
68380;BME280;57711;53.196;19.638;2023-02-22T10:12:27;100531.60;;;3.59;66.98
68380;BME280;57711;53.196;19.638;2023-02-22T10:18:18;100538.08;;;3.62;66.77
68380;BME280;57711;53.196;19.638;2023-02-22T10:23:53;100543.82;;;3.52;66.50
68380;BME280;57711;53.196;19.638;2023-02-22T10:26:28;100541.56;;;3.53;66.65
68380;BME280;57711;53.196;19.638;2023-02-22T10:29:16;100537.11;;;3.60;66.76
68380;BME280;57711;53.196;19.638;2023-02-22T10:31:48;100538.10;;;3.61;66.59
68380;BME280;57711;53.196;19.638;2023-02-22T10:34:24;100536.02;;;3.60;66.57
68380;BME280;57711;53.196;19.638;2023-02-22T10:37:20;100536.48;;;3.65;66.75
68380;BME280;57711;53.196;19.638;2023-02-22T10:39:47;100542.55;;;3.71;66.69
68380;BME280;57711;53.196;19.638;2023-02-22T10:42:24;100540.10;;;3.77;66.87
68380;BME280;57711;53.196;19.638;2023-02-22T10:44:52;100538.69;;;3.83;66.74
68380;BME280;57711;53.196;19.638;2023-02-22T10:47:20;100544.45;;;3.88;66.84
68380;BME280;57711;53.196;19.638;2023-02-22T10:49:50;100549.02;;;3.93;66.74
68380;BME280;57711;53.196;19.638;2023-02-22T10:52:28;100555.67;;;3.96;66.62
68380;BME280;57711;53.196;19.638;2023-02-22T10:54:57;100556.09;;;3.97;66.52
68380;BME280;57711;53.196;19.638;2023-02-22T10:57:43;100553.40;;;3.98;66.71
68380;BME280;57711;53.196;19.638;2023-02-22T11:02:50;100545.02;;;4.01;66.60
68380;BME280;57711;53.196;19.638;2023-02-22T11:05:36;100542.25;;;4.02;66.55
68380;BME280;57711;53.196;19.638;2023-02-22T11:08:22;100538.20;;;4.04;66.58
68380;BME280;57711;53.196;19.638;2023-02-22T11:10:51;100542.75;;;4.05;66.50
68380;BME280;57711;53.196;19.638;2023-02-22T11:13:26;100542.77;;;4.05;66.30
68380;BME280;57711;53.196;19.638;2023-02-22T11:15:54;100539.80;;;4.04;66.35
68380;BME280;57711;53.196;19.638;2023-02-22T11:18:30;100540.92;;;4.03;66.50
68380;BME280;57711;53.196;19.638;2023-02-22T11:21:00;100544.77;;;4.02;66.35
68380;BME280;57711;53.196;19.638;2023-02-22T11:23:28;100544.25;;;4.01;66.40
68380;BME280;57711;53.196;19.638;2023-02-22T11:26:06;100543.18;;;4.01;66.31
68380;BME280;57711;53.196;19.638;2023-02-22T11:28:35;100541.44;;;4.00;66.30
68380;BME280;57711;53.196;19.638;2023-02-22T11:31:13;100535.31;;;4.01;66.32
68380;BME280;57711;53.196;19.638;2023-02-22T11:34:08;100535.09;;;4.02;66.18
68380;BME280;57711;53.196;19.638;2023-02-22T11:36:50;100533.19;;;4.04;66.34
68380;BME280;57711;53.196;19.638;2023-02-22T11:39:26;100531.85;;;4.08;66.25
68380;BME280;57711;53.196;19.638;2023-02-22T11:41:56;100534.30;;;4.12;66.42
68380;BME280;57711;53.196;19.638;2023-02-22T11:44:31;100541.98;;;4.16;66.30
68380;BME280;57711;53.196;19.638;2023-02-22T11:47:02;100543.36;;;4.20;66.15
68380;BME280;57711;53.196;19.638;2023-02-22T11:49:35;100550.34;;;4.23;66.12
68380;BME280;57711;53.196;19.638;2023-02-22T11:55:13;100555.29;;;4.24;66.02
68380;BME280;57711;53.196;19.638;2023-02-22T11:58:29;100554.57;;;4.24;66.03
68380;BME280;57711;53.196;19.638;2023-02-22T12:01:03;100556.53;;;4.24;65.92
68380;BME280;57711;53.196;19.638;2023-02-22T12:03:48;100559.36;;;4.28;66.14
68380;BME280;57711;53.196;19.638;2023-02-22T12:14:22;100561.09;;;4.35;65.88
68380;BME280;57711;53.196;19.638;2023-02-22T12:19:47;100566.56;;;4.33;65.79
68380;BME280;57711;53.196;19.638;2023-02-22T12:22:28;100566.16;;;4.34;65.95
68380;BME280;57711;53.196;19.638;2023-02-22T12:27:45;100561.28;;;4.38;65.86
68380;BME280;57711;53.196;19.638;2023-02-22T12:30:23;100561.56;;;4.39;65.81
68380;BME280;57711;53.196;19.638;2023-02-22T12:32:54;100564.38;;;4.40;65.82
68380;BME280;57711;53.196;19.638;2023-02-22T12:35:36;100567.80;;;4.40;65.61
68380;BME280;57711;53.196;19.638;2023-02-22T12:43:20;100568.31;;;4.31;65.67
68380;BME280;57711;53.196;19.638;2023-02-22T12:46:05;100567.55;;;4.26;65.60
68380;BME280;57711;53.196;19.638;2023-02-22T12:48:48;100572.86;;;4.24;65.46
68380;BME280;57711;53.196;19.638;2023-02-22T12:51:44;100570.38;;;4.21;65.51
68380;BME280;57711;53.196;19.638;2023-02-22T12:57:07;100573.49;;;4.12;65.52
68380;BME280;57711;53.196;19.638;2023-02-22T12:59:40;100574.27;;;4.11;65.49
68380;BME280;57711;53.196;19.638;2023-02-22T13:02:27;100572.05;;;4.10;65.48
68380;BME280;57711;53.196;19.638;2023-02-22T13:04:59;100574.93;;;4.06;65.36
68380;BME280;57711;53.196;19.638;2023-02-22T13:07:39;100575.26;;;4.03;65.41
68380;BME280;57711;53.196;19.638;2023-02-22T13:18:19;100584.34;;;3.98;65.46
68380;BME280;57711;53.196;19.638;2023-02-22T13:26:19;100581.91;;;3.96;65.42
68380;BME280;57711;53.196;19.638;2023-02-22T13:28:54;100576.92;;;3.96;65.43
68380;BME280;57711;53.196;19.638;2023-02-22T13:51:00;100584.69;;;3.89;65.06
68380;BME280;57711;53.196;19.638;2023-02-22T13:54:05;100583.88;;;3.87;65.07
68380;BME280;57711;53.196;19.638;2023-02-22T13:56:33;100588.31;;;3.85;65.03
68380;BME280;57711;53.196;19.638;2023-02-22T13:59:02;100589.00;;;3.85;65.12
68380;BME280;57711;53.196;19.638;2023-02-22T14:01:47;100579.90;;;3.85;65.12
68380;BME280;57711;53.196;19.638;2023-02-22T14:06:56;100588.27;;;3.86;64.93
68380;BME280;57711;53.196;19.638;2023-02-22T14:18:03;100596.52;;;3.82;65.01
68380;BME280;57711;53.196;19.638;2023-02-22T14:20:37;100596.52;;;3.79;65.00
68380;BME280;57711;53.196;19.638;2023-02-22T14:23:26;100594.66;;;3.76;64.97
68380;BME280;57711;53.196;19.638;2023-02-22T14:26:09;100591.43;;;3.76;64.98
68380;BME280;57711;53.196;19.638;2023-02-22T14:28:42;100593.77;;;3.76;64.95
68380;BME280;57711;53.196;19.638;2023-02-22T14:31:14;100594.38;;;3.75;64.94
68380;BME280;57711;53.196;19.638;2023-02-22T14:34:11;100592.89;;;3.76;64.98
68380;BME280;57711;53.196;19.638;2023-02-22T14:36:58;100592.30;;;3.77;65.09
68380;BME280;57711;53.196;19.638;2023-02-22T14:39:41;100596.69;;;3.79;64.89
68380;BME280;57711;53.196;19.638;2023-02-22T14:42:35;100598.22;;;3.77;64.90
68380;BME280;57711;53.196;19.638;2023-02-22T14:47:44;100597.33;;;3.76;64.96
68380;BME280;57711;53.196;19.638;2023-02-22T14:50:21;100598.44;;;3.76;64.81
68380;BME280;57711;53.196;19.638;2023-02-22T14:55:42;100595.35;;;3.74;64.70
68380;BME280;57711;53.196;19.638;2023-02-22T14:58:17;100596.89;;;3.72;64.72
68380;BME280;57711;53.196;19.638;2023-02-22T15:00:48;100597.73;;;3.73;64.81
68380;BME280;57711;53.196;19.638;2023-02-22T15:03:27;100598.59;;;3.73;64.69
68380;BME280;57711;53.196;19.638;2023-02-22T15:06:34;100597.20;;;3.73;64.68
68380;BME280;57711;53.196;19.638;2023-02-22T15:09:07;100594.30;;;3.70;64.51
68380;BME280;57711;53.196;19.638;2023-02-22T15:11:37;100593.33;;;3.68;64.58